createdAt,value
2022-10-05T00:00:46.264Z,91.17
2022-10-05T00:03:13.777Z,90.86
2022-10-05T00:05:41.404Z,91.29
2022-10-05T00:08:15.487Z,91.70
2022-10-05T00:10:43.005Z,91.64
2022-10-05T00:13:16.375Z,91.53
2022-10-05T00:15:44.177Z,91.31
2022-10-05T00:18:15.158Z,91.62
2022-10-05T00:20:42.842Z,91.95
2022-10-05T00:23:28.537Z,91.63
2022-10-05T00:26:11.391Z,92.11
2022-10-05T00:28:41.319Z,92.12
2022-10-05T00:31:17.411Z,92.16
2022-10-05T00:33:44.536Z,91.92
2022-10-05T00:36:11.759Z,92.41
2022-10-05T00:38:39.139Z,92.15
2022-10-05T00:41:06.823Z,92.43
2022-10-05T00:43:55.854Z,92.33
2022-10-05T00:47:15.273Z,92.24
2022-10-05T00:50:00.529Z,92.30
2022-10-05T00:52:33.177Z,92.35
2022-10-05T00:55:06.171Z,92.96
2022-10-05T00:57:49.248Z,92.72
2022-10-05T01:00:19.237Z,92.92
2022-10-05T01:03:22.510Z,93.12
2022-10-05T01:06:22.707Z,93.50
2022-10-05T01:08:55.782Z,92.78
2022-10-05T01:11:45.842Z,93.31
2022-10-05T01:14:15.716Z,93.60
2022-10-05T01:16:49.510Z,93.43
2022-10-05T01:19:42.714Z,93.65
2022-10-05T01:22:47.228Z,93.15
2022-10-05T01:25:47.659Z,93.93
2022-10-05T01:28:20.732Z,93.58
2022-10-05T01:31:04.551Z,93.59
2022-10-05T01:33:41.483Z,93.62
2022-10-05T01:36:34.781Z,93.80
2022-10-05T01:39:19.592Z,94.02
2022-10-05T01:42:26.237Z,94.17
2022-10-05T01:45:12.548Z,94.35
2022-10-05T01:47:47.657Z,94.15
2022-10-05T01:50:38.233Z,94.60
2022-10-05T01:53:23.401Z,95.73
2022-10-05T01:56:09.636Z,96.79
2022-10-05T01:59:16.856Z,97.46
2022-10-05T02:01:55.666Z,98.00
2022-10-05T02:05:02.371Z,98.84
2022-10-05T02:07:38.983Z,98.92
2022-10-05T02:10:22.567Z,99.52
2022-10-05T02:12:54.998Z,100.00
2022-10-05T02:15:33.689Z,100.00
2022-10-05T02:18:07.445Z,100.00
2022-10-05T02:20:37.365Z,100.00
2022-10-05T02:23:28.092Z,100.00
2022-10-05T02:25:58.449Z,100.00
2022-10-05T02:28:35.269Z,100.00
2022-10-05T02:31:15.301Z,100.00
2022-10-05T02:33:42.469Z,100.00
2022-10-05T02:36:24.028Z,100.00
2022-10-05T02:39:17.195Z,100.00
2022-10-05T02:41:58.663Z,100.00
2022-10-05T02:44:50.089Z,100.00
2022-10-05T02:47:30.098Z,100.00
2022-10-05T02:50:13.035Z,100.00
2022-10-05T02:52:56.329Z,100.00
2022-10-05T02:55:35.419Z,100.00
2022-10-05T02:58:16.307Z,100.00
2022-10-05T03:00:51.272Z,100.00
2022-10-05T03:03:22.351Z,100.00
2022-10-05T03:06:03.787Z,100.00
2022-10-05T03:08:41.623Z,100.00
2022-10-05T03:11:48.448Z,100.00
2022-10-05T03:14:26.521Z,100.00
2022-10-05T03:17:19.253Z,100.00
2022-10-05T03:19:47.770Z,100.00
2022-10-05T03:22:27.015Z,100.00
2022-10-05T03:25:06.332Z,100.00
2022-10-05T03:27:42.210Z,100.00
2022-10-05T03:30:32.052Z,100.00
2022-10-05T03:33:08.103Z,100.00
2022-10-05T03:35:46.521Z,100.00
2022-10-05T03:38:52.818Z,100.00
2022-10-05T03:41:39.273Z,100.00
2022-10-05T03:44:26.560Z,100.00
2022-10-05T03:47:12.983Z,100.00
2022-10-05T03:50:04.542Z,100.00
2022-10-05T03:53:08.241Z,100.00
2022-10-05T03:56:15.766Z,100.00
2022-10-05T03:58:53.054Z,100.00
2022-10-05T04:01:26.016Z,100.00
2022-10-05T04:03:59.799Z,100.00
2022-10-05T04:06:34.124Z,100.00
2022-10-05T04:09:23.297Z,100.00
2022-10-05T04:12:01.149Z,100.00
2022-10-05T04:14:37.175Z,100.00
2022-10-05T04:17:18.344Z,100.00
2022-10-05T04:19:53.669Z,100.00
2022-10-05T04:22:32.275Z,100.00
2022-10-05T04:25:06.496Z,100.00
2022-10-05T04:27:43.047Z,100.00
2022-10-05T04:30:18.825Z,100.00
2022-10-05T04:32:54.298Z,100.00
2022-10-05T04:35:46.436Z,100.00
2022-10-05T04:38:24.938Z,100.00
2022-10-05T04:40:59.279Z,100.00
2022-10-05T04:43:44.825Z,100.00
2022-10-05T04:46:32.940Z,100.00
2022-10-05T04:49:37.087Z,100.00
2022-10-05T04:52:25.173Z,100.00
2022-10-05T04:55:00.740Z,100.00
2022-10-05T04:57:38.272Z,100.00
2022-10-05T05:00:10.176Z,100.00
2022-10-05T05:02:41.013Z,100.00
2022-10-05T05:05:26.340Z,100.00
2022-10-05T05:08:16.395Z,100.00
2022-10-05T05:11:05.264Z,100.00
2022-10-05T05:13:47.301Z,100.00
2022-10-05T05:16:36.345Z,100.00
2022-10-05T05:19:33.559Z,100.00
2022-10-05T05:22:07.217Z,100.00
2022-10-05T05:25:04.976Z,100.00
2022-10-05T05:27:47.763Z,100.00
2022-10-05T05:30:23.183Z,100.00
2022-10-05T05:33:00.173Z,100.00
2022-10-05T05:35:48.237Z,100.00
2022-10-05T05:38:35.457Z,100.00
2022-10-05T05:41:08.468Z,100.00
2022-10-05T05:43:59.081Z,100.00
2022-10-05T05:46:58.758Z,100.00
2022-10-05T05:49:53.927Z,100.00
2022-10-05T05:52:41.903Z,100.00
2022-10-05T05:55:16.208Z,100.00
2022-10-05T05:58:06.881Z,100.00
2022-10-05T06:01:30.745Z,100.00
2022-10-05T06:04:19.741Z,100.00
2022-10-05T06:06:52.224Z,100.00
2022-10-05T06:09:41.936Z,100.00
2022-10-05T06:12:37.811Z,100.00
2022-10-05T06:15:33.012Z,100.00
2022-10-05T06:18:06.661Z,100.00
2022-10-05T06:20:43.119Z,100.00
2022-10-05T06:23:19.465Z,100.00
2022-10-05T06:26:10.980Z,100.00
2022-10-05T06:28:41.499Z,100.00
2022-10-05T06:31:19.109Z,98.73
2022-10-05T06:34:05.654Z,100.00
2022-10-05T06:36:49.347Z,99.23
2022-10-05T06:39:39.146Z,97.12
2022-10-05T06:42:40.208Z,97.73
2022-10-05T06:45:41.156Z,92.90
2022-10-05T06:48:27.503Z,92.27
2022-10-05T06:51:27.130Z,92.42
2022-10-05T06:54:37.406Z,92.34
2022-10-05T06:57:26.997Z,91.28
2022-10-05T07:00:01.934Z,92.11
2022-10-05T07:03:02.905Z,92.34
2022-10-05T07:05:33.000Z,91.28
2022-10-05T07:08:11.960Z,90.17
2022-10-05T07:11:14.646Z,90.51
2022-10-05T07:14:00.558Z,91.49
2022-10-05T07:16:56.720Z,91.89
2022-10-05T07:20:13.224Z,93.03
2022-10-05T07:23:03.718Z,93.00
2022-10-05T07:25:50.896Z,92.10
2022-10-05T07:28:39.433Z,92.22
2022-10-05T07:31:31.777Z,89.42
2022-10-05T07:34:23.632Z,90.01
2022-10-05T07:37:47.987Z,89.75
2022-10-05T07:41:02.976Z,90.25
2022-10-05T07:44:01.698Z,90.85
2022-10-05T07:46:52.022Z,91.41
2022-10-05T07:49:49.064Z,92.40
2022-10-05T07:52:35.004Z,91.82
2022-10-05T07:55:25.442Z,91.81
2022-10-05T07:58:05.057Z,91.29
2022-10-05T08:00:45.029Z,92.40
2022-10-05T08:03:40.786Z,91.38
2022-10-05T08:06:16.335Z,91.66
2022-10-05T08:09:21.687Z,91.23
2022-10-05T08:11:58.331Z,90.96
2022-10-05T08:14:41.283Z,90.66
2022-10-05T08:17:40.961Z,90.77
2022-10-05T08:20:40.823Z,88.91
2022-10-05T08:23:45.437Z,89.16
2022-10-05T08:26:36.687Z,88.97
2022-10-05T08:29:13.819Z,88.99
2022-10-05T08:31:46.152Z,87.57
2022-10-05T08:34:20.352Z,86.85
2022-10-05T08:36:57.662Z,87.06
2022-10-05T08:39:29.958Z,85.94
2022-10-05T08:42:11.147Z,85.74
2022-10-05T08:44:50.009Z,88.73
2022-10-05T08:47:27.207Z,90.09
2022-10-05T08:50:11.072Z,90.82
2022-10-05T08:52:53.299Z,91.37
2022-10-05T08:55:46.562Z,90.78
2022-10-05T08:58:43.440Z,88.37
2022-10-05T09:01:16.822Z,88.26
2022-10-05T09:04:17.691Z,85.77
2022-10-05T09:06:54.898Z,85.27
2022-10-05T09:09:44.289Z,84.56
2022-10-05T09:12:36.226Z,83.15
2022-10-05T09:15:35.913Z,83.03
2022-10-05T09:18:27.275Z,81.88
2022-10-05T09:21:12.946Z,80.83
2022-10-05T09:23:40.675Z,80.32
2022-10-05T09:26:26.260Z,81.10
2022-10-05T09:29:22.732Z,77.80
2022-10-05T09:32:11.768Z,79.00
2022-10-05T09:35:27.784Z,81.58
2022-10-05T09:38:19.149Z,80.09
2022-10-05T09:41:13.947Z,80.21
2022-10-05T09:44:17.320Z,77.96
2022-10-05T09:47:04.312Z,78.33
2022-10-05T09:49:37.433Z,77.12
2022-10-05T09:52:42.125Z,75.82
2022-10-05T09:55:47.579Z,74.57
2022-10-05T09:58:42.356Z,72.12
2022-10-05T10:01:33.253Z,71.87
2022-10-05T10:04:10.316Z,69.55
2022-10-05T10:06:54.933Z,66.18
2022-10-05T10:09:53.143Z,62.55
2022-10-05T10:12:48.079Z,62.26
2022-10-05T10:15:58.246Z,60.40
2022-10-05T10:18:55.580Z,62.51
2022-10-05T10:21:36.077Z,64.32
2022-10-05T10:24:18.607Z,64.75
2022-10-05T10:27:10.588Z,64.17
2022-10-05T10:30:10.076Z,61.17
2022-10-05T10:32:48.738Z,59.77
2022-10-05T10:35:52.043Z,62.96
2022-10-05T10:38:58.519Z,62.17
2022-10-05T10:41:47.090Z,64.25
2022-10-05T10:44:51.781Z,63.43
2022-10-05T10:47:37.843Z,64.90
2022-10-05T10:50:28.457Z,67.92
2022-10-05T10:53:13.964Z,70.95
2022-10-05T10:56:20.081Z,74.40
2022-10-05T10:59:06.125Z,75.32
2022-10-05T11:01:46.212Z,78.60
2022-10-05T11:04:32.823Z,79.20
2022-10-05T11:07:23.563Z,81.26
2022-10-05T11:10:18.349Z,80.39
2022-10-05T11:13:13.495Z,80.37
2022-10-05T11:15:54.476Z,82.17
2022-10-05T11:18:50.145Z,85.03
2022-10-05T11:21:17.384Z,85.07
2022-10-05T11:24:15.885Z,80.71
2022-10-05T11:30:37.276Z,80.60
2022-10-05T11:33:22.673Z,83.93
2022-10-05T11:36:22.694Z,82.62
2022-10-05T11:39:30.667Z,84.46
2022-10-05T11:42:22.351Z,84.56
2022-10-05T11:45:17.730Z,85.40
2022-10-05T11:48:15.928Z,84.46
2022-10-05T11:50:52.873Z,83.87
2022-10-05T11:53:24.387Z,82.64
2022-10-05T11:56:03.857Z,81.63
2022-10-05T11:58:37.271Z,81.44
2022-10-05T12:01:30.165Z,82.14
2022-10-05T12:04:29.052Z,83.08
2022-10-05T12:07:17.849Z,82.86
2022-10-05T12:10:18.104Z,82.91
2022-10-05T12:13:10.385Z,83.09
2022-10-05T12:16:03.027Z,82.79
2022-10-05T12:18:30.741Z,82.98
2022-10-05T12:21:16.538Z,83.53
2022-10-05T12:24:07.894Z,82.16
2022-10-05T12:26:47.958Z,79.53
2022-10-05T12:29:44.031Z,78.47
2022-10-05T12:32:41.658Z,74.16
2022-10-05T12:35:43.513Z,72.67
2022-10-05T12:41:20.104Z,72.36
2022-10-05T12:43:55.281Z,73.39
2022-10-05T12:46:22.491Z,72.20
2022-10-05T12:49:08.342Z,70.27
2022-10-05T12:51:45.722Z,70.94
2022-10-05T12:54:24.132Z,71.01
2022-10-05T12:57:07.337Z,72.30
2022-10-05T13:00:03.290Z,75.31
2022-10-05T13:02:47.153Z,75.63
2022-10-05T13:05:30.868Z,77.44
2022-10-05T13:08:07.761Z,77.74
2022-10-05T13:10:41.663Z,78.04
2022-10-05T13:13:27.717Z,76.71
2022-10-05T13:15:55.487Z,77.02
2022-10-05T13:18:52.603Z,76.33
2022-10-05T13:21:53.143Z,75.30
2022-10-05T13:24:31.362Z,73.84
2022-10-05T13:27:09.147Z,72.20
2022-10-05T13:30:01.297Z,71.65
2022-10-05T13:32:45.171Z,67.96
2022-10-05T13:35:18.478Z,68.11
2022-10-05T13:38:21.494Z,68.82
2022-10-05T13:41:04.809Z,69.30
2022-10-05T13:43:47.498Z,70.53
2022-10-05T13:46:28.701Z,70.19
2022-10-05T13:49:30.510Z,71.37
2022-10-05T13:52:18.269Z,72.58
2022-10-05T13:54:48.697Z,75.03
2022-10-05T13:57:45.671Z,75.59
2022-10-05T14:00:25.607Z,77.91
2022-10-05T14:02:57.492Z,78.68
2022-10-05T14:05:28.391Z,78.69
2022-10-05T14:07:58.895Z,74.79
2022-10-05T14:10:40.131Z,72.87
2022-10-05T14:13:29.880Z,74.07
2022-10-05T14:16:19.307Z,73.33
2022-10-05T14:19:14.033Z,73.82
2022-10-05T14:22:01.757Z,75.02
2022-10-05T14:24:50.843Z,75.40
2022-10-05T14:27:19.118Z,76.10
2022-10-05T14:29:57.504Z,75.04
2022-10-05T14:32:27.937Z,76.17
2022-10-05T14:34:55.886Z,77.65
2022-10-05T14:37:26.417Z,78.62
2022-10-05T14:39:57.829Z,79.03
2022-10-05T14:42:30.441Z,81.23
2022-10-05T14:45:16.491Z,82.94
2022-10-05T14:47:53.634Z,86.09
2022-10-05T14:50:26.493Z,86.25
2022-10-05T14:53:12.585Z,88.28
2022-10-05T14:56:07.654Z,89.36
2022-10-05T14:58:54.704Z,90.53
2022-10-05T15:01:35.744Z,90.16
2022-10-05T15:04:22.918Z,89.89
2022-10-05T15:07:21.676Z,90.82
2022-10-05T15:09:54.962Z,90.51
2022-10-05T15:12:39.050Z,88.41
2022-10-05T15:15:29.862Z,88.54
2022-10-05T15:18:42.461Z,88.29
2022-10-05T15:21:33.791Z,87.42
2022-10-05T15:24:20.826Z,88.37
2022-10-05T15:26:52.241Z,86.62
2022-10-05T15:29:47.425Z,86.90
2022-10-05T15:32:43.043Z,86.98
2022-10-05T15:35:37.181Z,87.53
2022-10-05T15:38:21.926Z,88.63
2022-10-05T15:40:59.718Z,89.36
2022-10-05T15:43:41.962Z,89.55
2022-10-05T15:46:25.336Z,90.11
2022-10-05T15:49:12.918Z,89.45
2022-10-05T15:51:56.982Z,89.73
2022-10-05T15:54:56.969Z,89.79
2022-10-05T15:57:52.888Z,90.62
2022-10-05T16:00:24.252Z,89.72
2022-10-05T16:03:00.131Z,90.16
2022-10-05T16:05:58.366Z,90.00
2022-10-05T16:09:04.504Z,88.97
2022-10-05T16:12:05.710Z,88.65
2022-10-05T16:14:55.755Z,87.97
2022-10-05T16:17:52.828Z,88.27
2022-10-05T16:20:34.941Z,88.39
2022-10-05T16:23:07.585Z,88.41
2022-10-05T16:26:01.851Z,89.12
2022-10-05T16:29:13.731Z,87.73
2022-10-05T16:31:56.760Z,87.71
2022-10-05T16:34:55.058Z,87.64
2022-10-05T16:37:42.607Z,87.45
2022-10-05T16:40:32.192Z,87.96
2022-10-05T16:43:26.354Z,87.30
2022-10-05T16:46:48.754Z,87.36
2022-10-05T16:49:50.100Z,87.65
2022-10-05T16:52:23.134Z,86.79
2022-10-05T16:54:57.375Z,86.90
2022-10-05T16:57:39.814Z,86.14
2022-10-05T17:00:25.859Z,86.56
2022-10-05T17:03:35.364Z,86.39
2022-10-05T17:06:44.805Z,86.81
2022-10-05T17:09:35.454Z,87.13
2022-10-05T17:12:17.544Z,86.98
2022-10-05T17:15:03.962Z,86.67
2022-10-05T17:17:42.604Z,87.29
2022-10-05T17:20:40.237Z,87.66
2022-10-05T17:23:31.877Z,87.38
2022-10-05T17:26:05.551Z,87.72
2022-10-05T17:28:40.842Z,87.33
2022-10-05T17:31:26.457Z,87.56
2022-10-05T17:34:00.502Z,87.56
2022-10-05T17:36:50.276Z,87.44
2022-10-05T17:39:23.029Z,87.05
2022-10-05T17:41:51.157Z,87.48
2022-10-05T17:44:25.451Z,86.96
2022-10-05T17:47:07.530Z,86.52
2022-10-05T17:49:38.998Z,86.41
2022-10-05T17:52:41.543Z,86.42
2022-10-05T17:55:27.855Z,84.87
2022-10-05T17:58:00.363Z,85.14
2022-10-05T18:00:36.176Z,85.16
2022-10-05T18:03:44.148Z,85.05
2022-10-05T18:06:33.316Z,85.56
2022-10-05T18:09:34.092Z,85.90
2022-10-05T18:12:17.135Z,86.38
2022-10-05T18:14:56.546Z,86.43
2022-10-05T18:17:48.577Z,86.57
2022-10-05T18:20:30.731Z,87.67
2022-10-05T18:23:10.197Z,87.83
2022-10-05T18:25:39.846Z,88.28
2022-10-05T18:28:14.401Z,88.27
2022-10-05T18:31:10.451Z,88.08
2022-10-05T18:33:53.744Z,88.09
2022-10-05T18:36:45.248Z,87.57
2022-10-05T18:39:31.432Z,87.63
2022-10-05T18:42:25.446Z,88.31
2022-10-05T18:45:03.467Z,88.52
2022-10-05T18:47:51.305Z,89.08
2022-10-05T18:50:26.956Z,89.66
2022-10-05T18:53:17.837Z,89.83
2022-10-05T18:55:59.914Z,90.40
2022-10-05T18:58:54.577Z,91.52
2022-10-05T19:01:50.469Z,92.29
2022-10-05T19:04:23.122Z,93.13
2022-10-05T19:07:09.961Z,93.30
2022-10-05T19:09:48.201Z,93.87
2022-10-05T19:12:41.502Z,94.66
2022-10-05T19:15:15.714Z,95.16
2022-10-05T19:17:49.450Z,95.93
2022-10-05T19:20:30.574Z,96.92
2022-10-05T19:23:09.073Z,97.44
2022-10-05T19:25:38.873Z,98.31
2022-10-05T19:28:34.277Z,99.07
2022-10-05T19:31:14.318Z,99.45
2022-10-05T19:33:48.224Z,99.50
2022-10-05T19:36:19.828Z,99.91
2022-10-05T19:39:12.375Z,100.00
2022-10-05T19:41:58.494Z,100.00
2022-10-05T19:44:44.754Z,100.00
2022-10-05T19:47:45.791Z,99.95
2022-10-05T19:50:23.242Z,100.00
2022-10-05T19:52:59.053Z,100.00
2022-10-05T19:55:35.044Z,100.00
2022-10-05T19:58:02.740Z,100.00
2022-10-05T20:00:33.513Z,100.00
2022-10-05T20:03:17.494Z,99.79
2022-10-05T20:05:45.072Z,99.29
2022-10-05T20:08:19.290Z,99.56
2022-10-05T20:11:22.869Z,99.58
2022-10-05T20:13:53.830Z,99.42
2022-10-05T20:16:46.385Z,99.31
2022-10-05T20:19:50.418Z,99.23
2022-10-05T20:22:24.987Z,99.01
2022-10-05T20:24:54.278Z,98.55
2022-10-05T20:27:42.249Z,98.56
2022-10-05T20:30:12.482Z,98.65
2022-10-05T20:32:39.635Z,98.59
2022-10-05T20:35:09.598Z,98.61
2022-10-05T20:37:37.010Z,98.55
2022-10-05T20:40:06.002Z,98.31
2022-10-05T20:42:33.110Z,98.64
2022-10-05T20:45:00.124Z,98.13
2022-10-05T20:47:27.268Z,98.26
2022-10-05T20:49:54.742Z,98.51
2022-10-05T20:52:23.469Z,97.91
2022-10-05T20:54:53.969Z,98.48
2022-10-05T20:57:21.398Z,98.33
2022-10-05T20:59:48.840Z,97.80
2022-10-05T21:02:15.993Z,98.24
2022-10-05T21:04:47.676Z,98.28
2022-10-05T21:07:17.207Z,98.06
2022-10-05T21:09:44.978Z,98.33
2022-10-05T21:12:13.200Z,98.27
2022-10-05T21:14:40.756Z,98.78
2022-10-05T21:17:07.807Z,98.77
2022-10-05T21:19:44.000Z,98.81
2022-10-05T21:22:11.614Z,98.84
2022-10-05T21:24:41.067Z,99.18
2022-10-05T21:27:08.899Z,99.24
2022-10-05T21:29:37.253Z,99.54
2022-10-05T21:32:08.784Z,99.83
2022-10-05T21:34:35.803Z,99.96
2022-10-05T21:37:03.054Z,100.00
2022-10-05T21:39:30.249Z,99.97
2022-10-05T21:41:58.031Z,100.00
2022-10-05T21:44:25.553Z,100.00
2022-10-05T21:46:52.789Z,100.00
2022-10-05T21:49:20.070Z,100.00
2022-10-05T21:51:47.656Z,99.74
2022-10-05T21:54:19.364Z,100.00
2022-10-05T21:56:50.999Z,100.00
2022-10-05T21:59:22.347Z,99.82
2022-10-05T22:01:49.353Z,99.58
2022-10-05T22:04:16.439Z,99.81
2022-10-05T22:06:43.774Z,99.71
2022-10-05T22:09:11.162Z,99.65
2022-10-05T22:11:38.438Z,99.70
2022-10-05T22:14:05.608Z,99.47
2022-10-05T22:16:38.719Z,99.40
2022-10-05T22:19:10.894Z,99.43
2022-10-05T22:21:41.909Z,99.83
2022-10-05T22:24:11.832Z,100.00
2022-10-05T22:26:41.334Z,100.00
2022-10-05T22:29:09.788Z,100.00
2022-10-05T22:31:37.864Z,100.00
2022-10-05T22:34:05.020Z,100.00
2022-10-05T22:36:34.778Z,100.00
2022-10-05T22:39:02.109Z,100.00
2022-10-05T22:41:30.236Z,100.00
2022-10-05T22:43:57.393Z,100.00
2022-10-05T22:46:24.744Z,100.00
2022-10-05T22:48:51.810Z,100.00
2022-10-05T22:51:19.256Z,100.00
2022-10-05T22:53:46.418Z,100.00
2022-10-05T22:56:14.501Z,100.00
2022-10-05T22:58:43.289Z,100.00
2022-10-05T23:01:16.366Z,100.00
2022-10-05T23:03:44.641Z,100.00
2022-10-05T23:06:14.817Z,100.00
2022-10-05T23:08:42.808Z,100.00
2022-10-05T23:11:13.820Z,100.00
2022-10-05T23:13:42.283Z,100.00
2022-10-05T23:16:17.897Z,100.00
2022-10-05T23:18:47.422Z,100.00
2022-10-05T23:21:14.855Z,100.00
2022-10-05T23:23:45.658Z,100.00
2022-10-05T23:26:13.426Z,100.00
2022-10-05T23:28:46.433Z,100.00
2022-10-05T23:31:19.373Z,100.00
2022-10-05T23:33:47.258Z,100.00
2022-10-05T23:36:21.220Z,100.00
2022-10-05T23:38:48.510Z,100.00
2022-10-05T23:41:17.192Z,100.00
2022-10-05T23:43:44.388Z,100.00
2022-10-05T23:46:12.821Z,100.00
2022-10-05T23:48:41.157Z,100.00
2022-10-05T23:51:11.002Z,100.00
2022-10-05T23:53:38.170Z,100.00
2022-10-05T23:56:05.922Z,100.00
2022-10-05T23:58:33.018Z,100.00
